createdAt,value
2022-08-26T00:01:29.909Z,100.00
2022-08-26T00:04:31.773Z,100.00
2022-08-26T00:07:33.514Z,100.00
2022-08-26T00:10:37.078Z,100.00
2022-08-26T00:13:39.590Z,100.00
2022-08-26T00:16:49.030Z,100.00
2022-08-26T00:19:50.845Z,100.00
2022-08-26T00:22:54.678Z,100.00
2022-08-26T00:25:57.924Z,100.00
2022-08-26T00:29:00.435Z,100.00
2022-08-26T00:32:02.382Z,100.00
2022-08-26T00:35:06.170Z,100.00
2022-08-26T00:38:07.876Z,100.00
2022-08-26T00:41:12.454Z,100.00
2022-08-26T00:44:14.444Z,100.00
2022-08-26T00:47:24.394Z,100.00
2022-08-26T00:50:29.498Z,100.00
2022-08-26T00:53:34.406Z,100.00
2022-08-26T00:56:41.800Z,100.00
2022-08-26T00:59:45.386Z,100.00
2022-08-26T01:02:48.193Z,100.00
2022-08-26T01:05:51.607Z,100.00
2022-08-26T01:08:53.644Z,100.00
2022-08-26T01:11:59.070Z,100.00
2022-08-26T01:15:01.394Z,100.00
2022-08-26T01:18:04.274Z,100.00
2022-08-26T01:21:11.214Z,100.00
2022-08-26T01:24:14.473Z,100.00
2022-08-26T01:27:18.802Z,100.00
2022-08-26T01:30:20.741Z,100.00
2022-08-26T01:33:26.721Z,100.00
2022-08-26T01:36:28.677Z,100.00
2022-08-26T01:39:32.213Z,100.00
2022-08-26T01:42:34.062Z,100.00
2022-08-26T01:45:37.268Z,100.00
2022-08-26T01:48:40.059Z,100.00
2022-08-26T01:51:41.959Z,100.00
2022-08-26T01:54:46.299Z,100.00
2022-08-26T01:57:53.794Z,100.00
2022-08-26T02:00:58.732Z,100.00
2022-08-26T02:04:05.224Z,100.00
2022-08-26T02:07:08.619Z,100.00
2022-08-26T02:10:12.043Z,100.00
2022-08-26T02:13:13.849Z,100.00
2022-08-26T02:16:17.673Z,100.00
2022-08-26T02:19:20.699Z,100.00
2022-08-26T02:22:24.700Z,100.00
2022-08-26T02:25:30.967Z,100.00
2022-08-26T02:28:44.987Z,100.00
2022-08-26T02:31:46.749Z,100.00
2022-08-26T02:34:48.495Z,100.00
2022-08-26T02:37:50.914Z,100.00
2022-08-26T02:40:54.032Z,100.00
2022-08-26T02:43:55.697Z,100.00
2022-08-26T02:46:58.074Z,100.00
2022-08-26T02:50:00.357Z,100.00
2022-08-26T02:53:02.251Z,100.00
2022-08-26T02:56:07.233Z,100.00
2022-08-26T02:59:08.976Z,100.00
2022-08-26T03:02:10.962Z,100.00
2022-08-26T03:05:13.209Z,100.00
2022-08-26T03:08:14.927Z,100.00
2022-08-26T03:11:18.393Z,100.00
2022-08-26T03:14:20.124Z,100.00
2022-08-26T03:17:22.603Z,100.00
2022-08-26T03:20:24.306Z,100.00
2022-08-26T03:23:26.170Z,100.00
2022-08-26T03:26:29.332Z,100.00
2022-08-26T03:29:31.185Z,100.00
2022-08-26T03:32:34.859Z,100.00
2022-08-26T03:35:36.911Z,100.00
2022-08-26T03:38:38.819Z,100.00
2022-08-26T03:41:42.555Z,100.00
2022-08-26T03:44:44.265Z,100.00
2022-08-26T03:47:46.583Z,100.00
2022-08-26T03:50:49.141Z,100.00
2022-08-26T03:53:53.158Z,100.00
2022-08-26T03:56:56.355Z,100.00
2022-08-26T03:59:58.920Z,100.00
2022-08-26T04:03:00.671Z,100.00
2022-08-26T04:06:02.358Z,100.00
2022-08-26T04:09:05.026Z,100.00
2022-08-26T04:12:08.629Z,100.00
2022-08-26T04:15:11.340Z,100.00
2022-08-26T04:18:13.008Z,100.00
2022-08-26T04:21:15.301Z,100.00
2022-08-26T04:24:17.554Z,100.00
2022-08-26T04:27:20.832Z,100.00
2022-08-26T04:30:22.528Z,100.00
2022-08-26T04:33:32.562Z,100.00
2022-08-26T04:36:35.014Z,100.00
2022-08-26T04:39:37.476Z,100.00
2022-08-26T04:42:40.805Z,100.00
2022-08-26T04:45:42.729Z,100.00
2022-08-26T04:48:44.827Z,100.00
2022-08-26T04:51:47.663Z,100.00
2022-08-26T04:54:49.676Z,100.00
2022-08-26T04:57:52.906Z,100.00
2022-08-26T05:00:55.544Z,100.00
2022-08-26T05:03:57.640Z,100.00
2022-08-26T05:07:02.447Z,100.00
2022-08-26T05:10:05.991Z,100.00
2022-08-26T05:13:15.119Z,100.00
2022-08-26T05:16:17.523Z,100.00
2022-08-26T05:19:19.664Z,100.00
2022-08-26T05:22:22.757Z,100.00
2022-08-26T05:25:24.684Z,100.00
2022-08-26T05:28:30.652Z,100.00
2022-08-26T05:31:33.225Z,100.00
2022-08-26T05:34:34.944Z,100.00
2022-08-26T05:37:37.139Z,100.00
2022-08-26T05:40:40.882Z,100.00
2022-08-26T05:43:44.208Z,100.00
2022-08-26T05:46:46.085Z,100.00
2022-08-26T05:49:51.346Z,100.00
2022-08-26T05:52:53.474Z,100.00
2022-08-26T05:55:55.348Z,100.00
2022-08-26T05:58:59.813Z,100.00
2022-08-26T06:02:02.314Z,100.00
2022-08-26T06:05:05.176Z,100.00
2022-08-26T06:15:33.799Z,100.00
2022-08-26T06:18:36.919Z,100.00
2022-08-26T06:21:40.146Z,100.00
2022-08-26T06:24:41.922Z,100.00
2022-08-26T06:27:46.939Z,100.00
2022-08-26T06:30:50.617Z,100.00
2022-08-26T06:33:53.063Z,100.00
2022-08-26T06:36:56.758Z,100.00
2022-08-26T06:39:58.757Z,100.00
2022-08-26T06:43:00.456Z,100.00
2022-08-26T06:46:04.972Z,100.00
2022-08-26T06:49:06.764Z,100.00
2022-08-26T06:52:09.915Z,100.00
2022-08-26T06:55:11.681Z,100.00
2022-08-26T06:58:13.817Z,100.00
2022-08-26T07:01:18.214Z,100.00
2022-08-26T07:04:21.931Z,100.00
2022-08-26T07:07:24.674Z,100.00
2022-08-26T07:10:26.669Z,100.00
2022-08-26T07:13:29.891Z,100.00
2022-08-26T07:16:34.151Z,100.00
2022-08-26T07:19:37.623Z,100.00
2022-08-26T07:22:39.473Z,100.00
2022-08-26T07:25:41.813Z,100.00
2022-08-26T07:28:44.167Z,100.00
2022-08-26T07:31:47.278Z,100.00
2022-08-26T07:34:50.422Z,100.00
2022-08-26T07:37:56.804Z,100.00
2022-08-26T07:40:58.787Z,100.00
2022-08-26T07:44:00.438Z,100.00
2022-08-26T07:47:03.853Z,100.00
2022-08-26T07:50:12.278Z,100.00
2022-08-26T07:53:14.704Z,100.00
2022-08-26T07:56:20.206Z,100.00
2022-08-26T07:59:22.245Z,100.00
2022-08-26T08:02:26.845Z,100.00
2022-08-26T08:05:33.472Z,100.00
2022-08-26T08:08:35.846Z,100.00
2022-08-26T08:11:37.527Z,100.00
2022-08-26T08:14:39.309Z,100.00
2022-08-26T08:17:42.643Z,100.00
2022-08-26T08:20:47.614Z,100.00
2022-08-26T08:24:01.000Z,100.00
2022-08-26T08:27:02.676Z,100.00
2022-08-26T08:30:05.358Z,100.00
2022-08-26T08:33:08.860Z,100.00
2022-08-26T08:36:12.455Z,100.00
2022-08-26T08:39:20.389Z,100.00
2022-08-26T08:42:44.511Z,100.00
2022-08-26T08:45:49.569Z,100.00
2022-08-26T08:48:54.808Z,100.00
2022-08-26T08:51:58.652Z,100.00
2022-08-26T08:55:01.230Z,100.00
2022-08-26T08:58:05.544Z,100.00
2022-08-26T09:01:14.707Z,100.00
2022-08-26T09:04:31.300Z,100.00
2022-08-26T09:07:37.533Z,100.00
2022-08-26T09:10:40.504Z,100.00
2022-08-26T09:13:44.644Z,100.00
2022-08-26T09:16:50.648Z,100.00
2022-08-26T09:19:54.082Z,100.00
2022-08-26T09:22:57.835Z,100.00
2022-08-26T09:26:00.369Z,100.00
2022-08-26T09:29:04.366Z,100.00
2022-08-26T09:32:23.685Z,100.00
2022-08-26T09:35:27.424Z,100.00
2022-08-26T09:38:33.774Z,100.00
2022-08-26T09:41:35.453Z,100.00
2022-08-26T09:44:52.413Z,100.00
2022-08-26T09:47:56.184Z,100.00
2022-08-26T09:50:58.999Z,100.00
2022-08-26T09:54:03.642Z,100.00
2022-08-26T09:57:12.412Z,100.00
2022-08-26T10:00:26.591Z,100.00
2022-08-26T10:03:31.388Z,100.00
2022-08-26T10:06:36.357Z,100.00
2022-08-26T10:09:41.226Z,100.00
2022-08-26T10:12:47.702Z,100.00
2022-08-26T10:15:54.115Z,100.00
2022-08-26T10:19:00.675Z,100.00
2022-08-26T10:22:04.042Z,100.00
2022-08-26T10:25:09.318Z,100.00
2022-08-26T10:28:17.764Z,100.00
2022-08-26T10:31:27.769Z,100.00
2022-08-26T10:34:29.798Z,100.00
2022-08-26T10:37:34.897Z,100.00
2022-08-26T10:40:43.641Z,98.96
2022-08-26T10:43:48.640Z,100.00
2022-08-26T10:46:53.766Z,100.00
2022-08-26T10:50:00.481Z,100.00
2022-08-26T10:53:08.757Z,100.00
2022-08-26T10:56:19.169Z,99.90
2022-08-26T10:59:26.413Z,99.36
2022-08-26T11:02:33.854Z,96.67
2022-08-26T11:05:35.514Z,100.00
2022-08-26T11:08:45.101Z,99.14
2022-08-26T11:11:49.476Z,100.00
2022-08-26T11:14:58.766Z,98.13
2022-08-26T11:18:03.885Z,98.35
2022-08-26T11:21:36.094Z,99.29
2022-08-26T11:24:59.256Z,98.19
2022-08-26T11:28:03.138Z,94.54
2022-08-26T11:31:07.940Z,96.72
2022-08-26T11:34:13.169Z,96.27
2022-08-26T11:37:17.274Z,94.33
2022-08-26T11:40:21.041Z,98.65
2022-08-26T11:43:29.783Z,95.59
2022-08-26T11:46:32.223Z,94.21
2022-08-26T11:49:34.026Z,92.06
2022-08-26T11:52:35.781Z,91.65
2022-08-26T11:55:41.745Z,89.56
2022-08-26T11:58:45.603Z,88.88
2022-08-26T12:01:49.678Z,88.04
2022-08-26T12:04:51.851Z,89.65
2022-08-26T12:07:54.059Z,89.08
2022-08-26T12:11:02.433Z,85.66
2022-08-26T12:14:07.412Z,85.94
2022-08-26T12:17:10.407Z,87.07
2022-08-26T12:20:28.715Z,85.89
2022-08-26T12:23:37.453Z,87.27
2022-08-26T12:26:39.412Z,87.23
2022-08-26T12:29:42.566Z,85.29
2022-08-26T12:32:57.659Z,83.89
2022-08-26T12:36:00.360Z,85.56
2022-08-26T12:39:06.777Z,86.48
2022-08-26T12:42:21.711Z,86.36
2022-08-26T12:45:28.450Z,85.70
2022-08-26T12:48:31.893Z,86.84
2022-08-26T12:51:33.641Z,84.60
2022-08-26T12:54:35.347Z,88.62
2022-08-26T12:57:37.762Z,88.30
2022-08-26T13:00:42.416Z,91.10
2022-08-26T13:03:45.487Z,89.82
2022-08-26T13:06:47.245Z,91.57
2022-08-26T13:09:49.383Z,90.77
2022-08-26T13:12:51.042Z,88.07
2022-08-26T13:15:54.177Z,89.80
2022-08-26T13:18:57.400Z,86.44
2022-08-26T13:22:00.392Z,84.99
2022-08-26T13:25:02.182Z,84.52
2022-08-26T13:28:03.900Z,81.28
2022-08-26T13:31:07.291Z,83.42
2022-08-26T13:34:09.692Z,81.04
2022-08-26T13:37:11.448Z,76.68
2022-08-26T13:40:13.202Z,77.06
2022-08-26T13:43:14.977Z,78.19
2022-08-26T13:46:18.183Z,75.27
2022-08-26T13:49:19.960Z,73.09
2022-08-26T13:52:25.611Z,71.96
2022-08-26T13:55:32.161Z,73.71
2022-08-26T13:58:33.931Z,74.07
2022-08-26T14:01:37.049Z,76.84
2022-08-26T14:04:38.727Z,78.84
2022-08-26T14:07:40.793Z,81.02
2022-08-26T14:10:42.614Z,82.53
2022-08-26T14:13:44.475Z,80.83
2022-08-26T14:16:58.735Z,82.58
2022-08-26T14:20:01.991Z,85.69
2022-08-26T14:23:13.677Z,85.59
2022-08-26T14:26:21.236Z,85.63
2022-08-26T14:29:30.185Z,85.30
2022-08-26T14:32:33.384Z,84.62
2022-08-26T14:35:35.118Z,85.35
2022-08-26T14:38:36.866Z,85.73
2022-08-26T14:41:41.275Z,87.15
2022-08-26T14:44:44.486Z,85.48
2022-08-26T14:47:47.930Z,85.86
2022-08-26T14:50:49.739Z,86.36
2022-08-26T14:53:51.938Z,87.73
2022-08-26T14:56:55.004Z,88.27
2022-08-26T14:59:56.708Z,88.37
2022-08-26T15:02:59.964Z,86.99
2022-08-26T15:06:01.780Z,83.57
2022-08-26T15:09:04.645Z,85.99
2022-08-26T15:12:06.493Z,85.45
2022-08-26T15:15:09.035Z,86.69
2022-08-26T15:18:12.155Z,85.59
2022-08-26T15:21:13.884Z,85.06
2022-08-26T15:24:16.619Z,83.19
2022-08-26T15:27:18.585Z,78.03
2022-08-26T15:30:20.268Z,77.45
2022-08-26T15:33:23.335Z,77.76
2022-08-26T15:36:25.442Z,76.23
2022-08-26T15:39:27.133Z,72.74
2022-08-26T15:42:29.101Z,73.57
2022-08-26T15:45:32.141Z,72.39
2022-08-26T15:48:35.273Z,74.96
2022-08-26T15:51:45.388Z,73.79
2022-08-26T15:54:47.779Z,74.39
2022-08-26T15:57:51.701Z,73.90
2022-08-26T16:00:54.918Z,71.29
2022-08-26T16:03:58.164Z,71.58
2022-08-26T16:06:59.978Z,69.29
2022-08-26T16:10:01.816Z,69.61
2022-08-26T16:13:03.611Z,70.32
2022-08-26T16:16:05.464Z,70.51
2022-08-26T16:19:08.998Z,70.36
2022-08-26T16:22:10.730Z,71.84
2022-08-26T16:25:12.525Z,73.32
2022-08-26T16:28:14.814Z,74.85
2022-08-26T16:31:28.153Z,76.82
2022-08-26T16:34:31.257Z,78.63
2022-08-26T16:37:35.443Z,82.35
2022-08-26T16:40:39.483Z,83.01
2022-08-26T16:43:41.583Z,83.67
2022-08-26T16:46:43.325Z,82.89
2022-08-26T16:49:46.574Z,83.26
2022-08-26T16:52:50.710Z,81.67
2022-08-26T16:56:00.278Z,81.81
2022-08-26T16:59:02.482Z,80.70
2022-08-26T17:02:04.661Z,79.33
2022-08-26T17:05:08.697Z,78.47
2022-08-26T17:08:10.613Z,78.71
2022-08-26T17:11:12.573Z,78.74
2022-08-26T17:14:14.305Z,77.90
2022-08-26T17:17:16.019Z,77.86
2022-08-26T17:20:19.467Z,78.31
2022-08-26T17:23:21.779Z,77.26
2022-08-26T17:26:25.586Z,78.75
2022-08-26T17:29:27.295Z,79.95
2022-08-26T17:32:29.138Z,83.02
2022-08-26T17:35:32.388Z,84.68
2022-08-26T17:38:34.413Z,85.40
2022-08-26T17:41:36.086Z,85.76
2022-08-26T17:44:37.908Z,87.35
2022-08-26T17:47:39.975Z,87.24
2022-08-26T17:50:43.553Z,88.86
2022-08-26T17:53:51.710Z,90.04
2022-08-26T17:56:53.720Z,88.45
2022-08-26T17:59:56.005Z,90.73
2022-08-26T18:02:57.738Z,91.37
2022-08-26T18:06:01.356Z,91.85
2022-08-26T18:09:03.806Z,92.07
2022-08-26T18:12:05.730Z,92.75
2022-08-26T18:15:08.179Z,93.61
2022-08-26T18:18:09.909Z,93.79
2022-08-26T18:21:13.886Z,96.09
2022-08-26T18:24:15.646Z,97.56
2022-08-26T18:27:17.298Z,99.07
2022-08-26T18:30:20.336Z,97.86
2022-08-26T18:33:22.007Z,97.74
2022-08-26T18:36:26.754Z,97.29
2022-08-26T18:39:28.469Z,96.82
2022-08-26T18:42:30.173Z,95.31
2022-08-26T18:45:31.819Z,96.93
2022-08-26T18:48:34.102Z,96.84
2022-08-26T18:51:37.279Z,96.87
2022-08-26T18:54:39.006Z,96.72
2022-08-26T18:57:40.699Z,97.90
2022-08-26T19:00:42.516Z,97.86
2022-08-26T19:03:44.825Z,98.01
2022-08-26T19:06:48.831Z,97.08
2022-08-26T19:09:53.867Z,99.09
2022-08-26T19:13:00.096Z,100.00
2022-08-26T19:16:02.919Z,100.00
2022-08-26T19:19:05.399Z,100.00
2022-08-26T19:22:08.850Z,100.00
2022-08-26T19:25:10.589Z,100.00
2022-08-26T19:28:13.089Z,100.00
2022-08-26T19:31:14.963Z,100.00
2022-08-26T19:34:18.301Z,100.00
2022-08-26T19:37:24.394Z,100.00
2022-08-26T19:40:26.668Z,100.00
2022-08-26T19:43:29.030Z,100.00
2022-08-26T19:46:34.567Z,100.00
2022-08-26T19:49:36.821Z,100.00
2022-08-26T19:52:40.733Z,100.00
2022-08-26T19:55:42.418Z,100.00
2022-08-26T19:58:44.533Z,100.00
2022-08-26T20:01:46.608Z,100.00
2022-08-26T20:05:02.461Z,100.00
2022-08-26T20:08:05.993Z,100.00
2022-08-26T20:11:09.342Z,100.00
2022-08-26T20:14:13.503Z,100.00
2022-08-26T20:17:15.577Z,100.00
2022-08-26T20:20:32.960Z,100.00
2022-08-26T20:23:37.557Z,100.00
2022-08-26T20:26:40.919Z,100.00
2022-08-26T20:29:42.808Z,100.00
2022-08-26T20:32:44.770Z,100.00
2022-08-26T20:35:46.545Z,100.00
2022-08-26T20:38:50.099Z,100.00
2022-08-26T20:41:51.904Z,100.00
2022-08-26T20:44:54.500Z,100.00
2022-08-26T20:47:56.841Z,100.00
2022-08-26T20:50:59.009Z,100.00
2022-08-26T20:54:02.309Z,100.00
2022-08-26T20:57:04.374Z,100.00
2022-08-26T21:00:06.539Z,100.00
2022-08-26T21:03:08.236Z,100.00
2022-08-26T21:06:10.221Z,100.00
2022-08-26T21:09:14.065Z,100.00
2022-08-26T21:12:17.068Z,100.00
2022-08-26T21:15:18.926Z,100.00
2022-08-26T21:18:20.645Z,100.00
2022-08-26T21:21:25.000Z,100.00
2022-08-26T21:24:28.298Z,100.00
2022-08-26T21:27:30.239Z,100.00
2022-08-26T21:30:32.004Z,100.00
2022-08-26T21:33:34.212Z,100.00
2022-08-26T21:36:36.045Z,100.00
2022-08-26T21:39:39.147Z,100.00
2022-08-26T21:42:41.610Z,100.00
2022-08-26T21:45:43.373Z,100.00
2022-08-26T21:48:50.369Z,100.00
2022-08-26T21:51:52.570Z,100.00
2022-08-26T21:54:57.868Z,100.00
2022-08-26T21:58:00.179Z,100.00
2022-08-26T22:01:02.149Z,100.00
2022-08-26T22:04:04.996Z,100.00
2022-08-26T22:07:06.734Z,100.00
2022-08-26T22:13:11.409Z,100.00
2022-08-26T22:16:17.517Z,100.00
2022-08-26T22:19:19.403Z,100.00
2022-08-26T22:22:21.472Z,100.00
2022-08-26T22:25:23.181Z,100.00
2022-08-26T22:28:26.846Z,100.00
2022-08-26T22:31:38.116Z,100.00
2022-08-26T22:34:40.326Z,100.00
2022-08-26T22:37:42.075Z,100.00
2022-08-26T22:40:44.334Z,100.00
2022-08-26T22:43:47.886Z,100.00
2022-08-26T22:46:50.446Z,100.00
2022-08-26T22:49:52.242Z,100.00
2022-08-26T22:52:53.918Z,100.00
2022-08-26T22:55:55.718Z,100.00
2022-08-26T22:58:58.858Z,100.00
2022-08-26T23:02:00.568Z,100.00
2022-08-26T23:05:02.388Z,100.00
2022-08-26T23:08:04.301Z,100.00
2022-08-26T23:11:07.672Z,100.00
2022-08-26T23:14:10.844Z,100.00
2022-08-26T23:17:12.860Z,100.00
2022-08-26T23:20:16.198Z,100.00
2022-08-26T23:23:17.927Z,100.00
2022-08-26T23:26:19.793Z,100.00
2022-08-26T23:29:22.955Z,100.00
2022-08-26T23:32:24.700Z,100.00
2022-08-26T23:35:26.690Z,100.00
2022-08-26T23:38:28.359Z,100.00
2022-08-26T23:41:31.412Z,100.00
2022-08-26T23:44:34.523Z,100.00
2022-08-26T23:47:36.311Z,100.00
2022-08-26T23:50:38.045Z,100.00
2022-08-26T23:53:39.776Z,100.00
2022-08-26T23:56:41.723Z,100.00
2022-08-26T23:59:44.867Z,100.00
